sensor_id;sensor_type;location;lat;lon;timestamp;temperature;humidity
4487;DHT22;2256;48.740;9.106;2023-03-14T00:00:51;9.20;99.90
4487;DHT22;2256;48.740;9.106;2023-03-14T00:03:18;9.20;99.90
4487;DHT22;2256;48.740;9.106;2023-03-14T00:05:44;9.30;99.90
4487;DHT22;2256;48.740;9.106;2023-03-14T00:08:12;9.20;99.90
4487;DHT22;2256;48.740;9.106;2023-03-14T00:10:39;9.20;99.90
4487;DHT22;2256;48.740;9.106;2023-03-14T00:13:08;9.10;99.90
4487;DHT22;2256;48.740;9.106;2023-03-14T00:15:35;9.20;99.90
4487;DHT22;2256;48.740;9.106;2023-03-14T00:18:02;9.20;99.90
4487;DHT22;2256;48.740;9.106;2023-03-14T00:20:29;9.10;99.90
4487;DHT22;2256;48.740;9.106;2023-03-14T00:22:56;9.20;99.90
4487;DHT22;2256;48.740;9.106;2023-03-14T00:25:23;9.20;99.90
4487;DHT22;2256;48.740;9.106;2023-03-14T00:27:50;9.10;99.90
4487;DHT22;2256;48.740;9.106;2023-03-14T00:30:19;9.10;99.90
4487;DHT22;2256;48.740;9.106;2023-03-14T00:32:46;9.10;99.90
4487;DHT22;2256;48.740;9.106;2023-03-14T00:35:12;8.90;99.90
4487;DHT22;2256;48.740;9.106;2023-03-14T00:37:39;8.90;99.90
4487;DHT22;2256;48.740;9.106;2023-03-14T00:40:07;9.00;99.90
4487;DHT22;2256;48.740;9.106;2023-03-14T00:42:35;9.00;99.90
4487;DHT22;2256;48.740;9.106;2023-03-14T00:45:03;9.10;99.90
4487;DHT22;2256;48.740;9.106;2023-03-14T00:47:31;9.00;99.90
4487;DHT22;2256;48.740;9.106;2023-03-14T00:49:58;9.10;99.90
4487;DHT22;2256;48.740;9.106;2023-03-14T00:52:25;9.10;99.90
4487;DHT22;2256;48.740;9.106;2023-03-14T00:54:52;9.10;99.90
4487;DHT22;2256;48.740;9.106;2023-03-14T00:57:20;9.10;99.90
4487;DHT22;2256;48.740;9.106;2023-03-14T00:59:47;9.00;99.90
4487;DHT22;2256;48.740;9.106;2023-03-14T01:02:13;9.00;99.90
4487;DHT22;2256;48.740;9.106;2023-03-14T01:04:41;9.00;99.90
4487;DHT22;2256;48.740;9.106;2023-03-14T01:07:09;9.00;99.90
4487;DHT22;2256;48.740;9.106;2023-03-14T01:09:35;9.00;99.90
4487;DHT22;2256;48.740;9.106;2023-03-14T01:12:02;9.10;99.90
4487;DHT22;2256;48.740;9.106;2023-03-14T01:14:29;9.10;99.90
4487;DHT22;2256;48.740;9.106;2023-03-14T01:16:56;9.10;99.90
4487;DHT22;2256;48.740;9.106;2023-03-14T01:19:26;9.10;99.90
4487;DHT22;2256;48.740;9.106;2023-03-14T01:21:55;9.00;99.90
4487;DHT22;2256;48.740;9.106;2023-03-14T01:24:22;9.00;99.90
4487;DHT22;2256;48.740;9.106;2023-03-14T01:26:49;9.10;99.90
4487;DHT22;2256;48.740;9.106;2023-03-14T01:29:17;9.20;99.90
4487;DHT22;2256;48.740;9.106;2023-03-14T01:31:43;9.20;99.90
4487;DHT22;2256;48.740;9.106;2023-03-14T01:34:10;9.20;99.90
4487;DHT22;2256;48.740;9.106;2023-03-14T01:36:37;9.20;99.90
4487;DHT22;2256;48.740;9.106;2023-03-14T01:39:05;9.20;99.90
4487;DHT22;2256;48.740;9.106;2023-03-14T01:41:33;9.20;99.90
4487;DHT22;2256;48.740;9.106;2023-03-14T01:44:00;9.20;99.90
4487;DHT22;2256;48.740;9.106;2023-03-14T01:46:38;9.20;99.90
4487;DHT22;2256;48.740;9.106;2023-03-14T01:49:12;9.10;99.90
4487;DHT22;2256;48.740;9.106;2023-03-14T01:51:44;9.10;99.90
4487;DHT22;2256;48.740;9.106;2023-03-14T01:54:18;9.10;99.90
4487;DHT22;2256;48.740;9.106;2023-03-14T01:56:49;9.10;99.90
4487;DHT22;2256;48.740;9.106;2023-03-14T01:59:17;9.00;99.90
4487;DHT22;2256;48.740;9.106;2023-03-14T02:01:46;9.00;99.90
4487;DHT22;2256;48.740;9.106;2023-03-14T02:04:14;9.10;99.90
4487;DHT22;2256;48.740;9.106;2023-03-14T02:06:49;9.00;99.90
4487;DHT22;2256;48.740;9.106;2023-03-14T02:09:18;8.90;99.90
4487;DHT22;2256;48.740;9.106;2023-03-14T02:11:45;8.80;99.90
4487;DHT22;2256;48.740;9.106;2023-03-14T02:14:19;8.80;99.90
4487;DHT22;2256;48.740;9.106;2023-03-14T02:16:48;8.90;99.90
4487;DHT22;2256;48.740;9.106;2023-03-14T02:19:18;8.90;99.90
4487;DHT22;2256;48.740;9.106;2023-03-14T02:21:53;8.80;99.90
4487;DHT22;2256;48.740;9.106;2023-03-14T02:24:29;8.60;99.90
4487;DHT22;2256;48.740;9.106;2023-03-14T02:27:06;8.80;99.90
4487;DHT22;2256;48.740;9.106;2023-03-14T02:29:34;8.80;99.90
4487;DHT22;2256;48.740;9.106;2023-03-14T02:32:04;8.70;99.90
4487;DHT22;2256;48.740;9.106;2023-03-14T02:34:31;8.70;99.90
4487;DHT22;2256;48.740;9.106;2023-03-14T02:37:00;8.80;99.90
4487;DHT22;2256;48.740;9.106;2023-03-14T02:39:32;8.90;99.90
4487;DHT22;2256;48.740;9.106;2023-03-14T02:42:01;8.90;99.90
4487;DHT22;2256;48.740;9.106;2023-03-14T02:44:29;8.80;99.90
4487;DHT22;2256;48.740;9.106;2023-03-14T02:46:57;8.90;99.90
4487;DHT22;2256;48.740;9.106;2023-03-14T02:49:25;8.90;99.90
4487;DHT22;2256;48.740;9.106;2023-03-14T02:51:53;8.90;99.90
4487;DHT22;2256;48.740;9.106;2023-03-14T02:54:20;8.80;99.90
4487;DHT22;2256;48.740;9.106;2023-03-14T02:56:47;8.80;99.90
4487;DHT22;2256;48.740;9.106;2023-03-14T02:59:14;8.80;99.90
4487;DHT22;2256;48.740;9.106;2023-03-14T03:01:42;8.70;99.90
4487;DHT22;2256;48.740;9.106;2023-03-14T03:04:09;8.70;99.90
4487;DHT22;2256;48.740;9.106;2023-03-14T03:06:35;8.70;99.90
4487;DHT22;2256;48.740;9.106;2023-03-14T03:09:03;8.70;99.90
4487;DHT22;2256;48.740;9.106;2023-03-14T03:11:30;8.70;99.90
4487;DHT22;2256;48.740;9.106;2023-03-14T03:13:57;8.80;99.90
4487;DHT22;2256;48.740;9.106;2023-03-14T03:16:24;8.70;99.90
4487;DHT22;2256;48.740;9.106;2023-03-14T03:18:52;8.60;99.90
4487;DHT22;2256;48.740;9.106;2023-03-14T03:21:19;8.60;99.90
4487;DHT22;2256;48.740;9.106;2023-03-14T03:23:48;8.50;99.90
4487;DHT22;2256;48.740;9.106;2023-03-14T03:26:16;8.40;99.90
4487;DHT22;2256;48.740;9.106;2023-03-14T03:28:43;8.50;99.90
4487;DHT22;2256;48.740;9.106;2023-03-14T03:31:11;8.50;99.90
4487;DHT22;2256;48.740;9.106;2023-03-14T03:33:38;8.50;99.90
4487;DHT22;2256;48.740;9.106;2023-03-14T03:36:09;8.50;99.90
4487;DHT22;2256;48.740;9.106;2023-03-14T03:38:36;8.60;99.90
4487;DHT22;2256;48.740;9.106;2023-03-14T03:41:04;8.50;99.90
4487;DHT22;2256;48.740;9.106;2023-03-14T03:43:32;8.50;99.90
4487;DHT22;2256;48.740;9.106;2023-03-14T03:46:02;8.40;99.90
4487;DHT22;2256;48.740;9.106;2023-03-14T03:48:30;8.40;99.90
4487;DHT22;2256;48.740;9.106;2023-03-14T03:50:56;8.40;99.90
4487;DHT22;2256;48.740;9.106;2023-03-14T03:53:24;8.40;99.90
4487;DHT22;2256;48.740;9.106;2023-03-14T03:55:52;8.30;99.90
4487;DHT22;2256;48.740;9.106;2023-03-14T03:58:19;8.40;99.90
4487;DHT22;2256;48.740;9.106;2023-03-14T04:00:46;8.40;99.90
4487;DHT22;2256;48.740;9.106;2023-03-14T04:03:13;8.40;99.90
4487;DHT22;2256;48.740;9.106;2023-03-14T04:05:40;8.30;99.90
4487;DHT22;2256;48.740;9.106;2023-03-14T04:08:07;8.30;99.90
4487;DHT22;2256;48.740;9.106;2023-03-14T04:10:36;8.30;99.90
4487;DHT22;2256;48.740;9.106;2023-03-14T04:13:03;8.30;99.90
4487;DHT22;2256;48.740;9.106;2023-03-14T04:15:30;8.30;99.90
4487;DHT22;2256;48.740;9.106;2023-03-14T04:17:57;8.30;99.90
4487;DHT22;2256;48.740;9.106;2023-03-14T04:20:24;8.30;99.90
4487;DHT22;2256;48.740;9.106;2023-03-14T04:22:51;8.30;99.90
4487;DHT22;2256;48.740;9.106;2023-03-14T04:25:18;8.30;99.90
4487;DHT22;2256;48.740;9.106;2023-03-14T04:27:47;8.30;99.90
4487;DHT22;2256;48.740;9.106;2023-03-14T04:30:14;8.20;99.90
4487;DHT22;2256;48.740;9.106;2023-03-14T04:32:41;8.20;99.90
4487;DHT22;2256;48.740;9.106;2023-03-14T04:35:08;8.10;99.90
4487;DHT22;2256;48.740;9.106;2023-03-14T04:37:35;8.10;99.90
4487;DHT22;2256;48.740;9.106;2023-03-14T04:40:03;8.20;99.90
4487;DHT22;2256;48.740;9.106;2023-03-14T04:42:31;8.30;99.90
4487;DHT22;2256;48.740;9.106;2023-03-14T04:45:00;8.40;99.90
4487;DHT22;2256;48.740;9.106;2023-03-14T04:47:26;8.40;99.90
4487;DHT22;2256;48.740;9.106;2023-03-14T04:49:54;8.40;99.90
4487;DHT22;2256;48.740;9.106;2023-03-14T04:52:20;8.30;99.90
4487;DHT22;2256;48.740;9.106;2023-03-14T04:54:47;8.30;99.90
4487;DHT22;2256;48.740;9.106;2023-03-14T04:57:15;8.20;99.90
4487;DHT22;2256;48.740;9.106;2023-03-14T04:59:44;8.30;99.90
4487;DHT22;2256;48.740;9.106;2023-03-14T05:02:12;8.30;99.90
4487;DHT22;2256;48.740;9.106;2023-03-14T05:04:39;8.20;99.90
4487;DHT22;2256;48.740;9.106;2023-03-14T05:07:06;8.20;99.90
4487;DHT22;2256;48.740;9.106;2023-03-14T05:09:33;8.20;99.90
4487;DHT22;2256;48.740;9.106;2023-03-14T05:12:00;8.10;99.90
4487;DHT22;2256;48.740;9.106;2023-03-14T05:14:26;8.10;99.90
4487;DHT22;2256;48.740;9.106;2023-03-14T05:16:53;8.10;99.90
4487;DHT22;2256;48.740;9.106;2023-03-14T05:19:22;8.10;99.90
4487;DHT22;2256;48.740;9.106;2023-03-14T05:21:49;8.00;99.90
4487;DHT22;2256;48.740;9.106;2023-03-14T05:24:16;8.10;99.90
4487;DHT22;2256;48.740;9.106;2023-03-14T05:26:42;8.00;99.90
4487;DHT22;2256;48.740;9.106;2023-03-14T05:29:09;8.00;99.90
4487;DHT22;2256;48.740;9.106;2023-03-14T05:31:36;8.00;99.90
4487;DHT22;2256;48.740;9.106;2023-03-14T05:34:02;8.10;99.90
4487;DHT22;2256;48.740;9.106;2023-03-14T05:36:31;8.10;99.90
4487;DHT22;2256;48.740;9.106;2023-03-14T05:38:58;8.10;99.90
4487;DHT22;2256;48.740;9.106;2023-03-14T05:41:24;8.20;99.90
4487;DHT22;2256;48.740;9.106;2023-03-14T05:43:51;8.30;99.90
4487;DHT22;2256;48.740;9.106;2023-03-14T05:46:18;8.30;99.90
4487;DHT22;2256;48.740;9.106;2023-03-14T05:48:45;8.20;99.90
4487;DHT22;2256;48.740;9.106;2023-03-14T05:51:12;8.30;99.90
4487;DHT22;2256;48.740;9.106;2023-03-14T05:53:41;8.20;99.90
4487;DHT22;2256;48.740;9.106;2023-03-14T05:56:08;8.20;99.90
4487;DHT22;2256;48.740;9.106;2023-03-14T05:58:35;8.20;99.90
4487;DHT22;2256;48.740;9.106;2023-03-14T06:01:03;8.20;99.90
4487;DHT22;2256;48.740;9.106;2023-03-14T06:03:31;8.20;99.90
4487;DHT22;2256;48.740;9.106;2023-03-14T06:05:58;8.20;99.90
4487;DHT22;2256;48.740;9.106;2023-03-14T06:08:25;8.20;99.90
4487;DHT22;2256;48.740;9.106;2023-03-14T06:10:54;8.10;99.90
4487;DHT22;2256;48.740;9.106;2023-03-14T06:13:20;8.20;99.90
4487;DHT22;2256;48.740;9.106;2023-03-14T06:15:47;8.30;99.90
4487;DHT22;2256;48.740;9.106;2023-03-14T06:18:14;8.30;99.90
4487;DHT22;2256;48.740;9.106;2023-03-14T06:20:41;8.40;99.90
4487;DHT22;2256;48.740;9.106;2023-03-14T06:23:08;8.40;99.90
4487;DHT22;2256;48.740;9.106;2023-03-14T06:25:35;8.40;99.90
4487;DHT22;2256;48.740;9.106;2023-03-14T06:28:05;8.40;99.90
4487;DHT22;2256;48.740;9.106;2023-03-14T06:30:32;8.50;99.90
4487;DHT22;2256;48.740;9.106;2023-03-14T06:32:59;8.60;99.90
4487;DHT22;2256;48.740;9.106;2023-03-14T06:35:25;8.50;99.90
4487;DHT22;2256;48.740;9.106;2023-03-14T06:37:52;8.70;99.90
4487;DHT22;2256;48.740;9.106;2023-03-14T06:40:19;8.70;99.90
4487;DHT22;2256;48.740;9.106;2023-03-14T06:42:46;8.80;99.90
4487;DHT22;2256;48.740;9.106;2023-03-14T06:45:15;8.90;99.90
4487;DHT22;2256;48.740;9.106;2023-03-14T06:47:42;9.00;99.90
4487;DHT22;2256;48.740;9.106;2023-03-14T06:50:10;9.60;99.90
4487;DHT22;2256;48.740;9.106;2023-03-14T06:52:37;10.70;99.90
4487;DHT22;2256;48.740;9.106;2023-03-14T06:55:07;11.50;99.90
4487;DHT22;2256;48.740;9.106;2023-03-14T06:57:34;11.40;99.90
4487;DHT22;2256;48.740;9.106;2023-03-14T07:00:00;10.80;99.90
4487;DHT22;2256;48.740;9.106;2023-03-14T07:02:28;10.40;99.90
4487;DHT22;2256;48.740;9.106;2023-03-14T07:04:55;10.20;99.90
4487;DHT22;2256;48.740;9.106;2023-03-14T07:07:22;10.10;99.90
4487;DHT22;2256;48.740;9.106;2023-03-14T07:09:48;10.00;99.90
4487;DHT22;2256;48.740;9.106;2023-03-14T07:12:15;10.00;99.90
4487;DHT22;2256;48.740;9.106;2023-03-14T07:14:42;10.30;99.90
4487;DHT22;2256;48.740;9.106;2023-03-14T07:17:09;10.70;99.90
4487;DHT22;2256;48.740;9.106;2023-03-14T07:19:37;10.60;99.90
4487;DHT22;2256;48.740;9.106;2023-03-14T07:22:04;10.60;99.90
4487;DHT22;2256;48.740;9.106;2023-03-14T07:24:31;10.70;99.90
4487;DHT22;2256;48.740;9.106;2023-03-14T07:26:58;10.90;99.90
4487;DHT22;2256;48.740;9.106;2023-03-14T07:29:25;11.30;99.90
4487;DHT22;2256;48.740;9.106;2023-03-14T07:31:52;11.70;99.90
4487;DHT22;2256;48.740;9.106;2023-03-14T07:34:19;12.20;99.90
4487;DHT22;2256;48.740;9.106;2023-03-14T07:36:47;12.90;99.90
4487;DHT22;2256;48.740;9.106;2023-03-14T07:39:14;13.20;99.90
4487;DHT22;2256;48.740;9.106;2023-03-14T07:41:40;13.40;99.90
4487;DHT22;2256;48.740;9.106;2023-03-14T07:44:07;13.80;99.90
4487;DHT22;2256;48.740;9.106;2023-03-14T07:46:34;14.10;99.90
4487;DHT22;2256;48.740;9.106;2023-03-14T07:49:01;14.50;99.90
4487;DHT22;2256;48.740;9.106;2023-03-14T07:51:28;14.40;99.90
4487;DHT22;2256;48.740;9.106;2023-03-14T07:53:56;14.40;99.90
4487;DHT22;2256;48.740;9.106;2023-03-14T07:56:22;15.60;99.90
4487;DHT22;2256;48.740;9.106;2023-03-14T07:58:49;16.30;99.90
4487;DHT22;2256;48.740;9.106;2023-03-14T08:01:16;15.80;99.90
4487;DHT22;2256;48.740;9.106;2023-03-14T08:03:43;14.90;99.90
4487;DHT22;2256;48.740;9.106;2023-03-14T08:06:09;14.60;99.90
4487;DHT22;2256;48.740;9.106;2023-03-14T08:08:36;14.70;99.90
4487;DHT22;2256;48.740;9.106;2023-03-14T08:11:07;14.70;99.90
4487;DHT22;2256;48.740;9.106;2023-03-14T08:13:35;14.60;99.90
4487;DHT22;2256;48.740;9.106;2023-03-14T08:16:02;14.60;99.90
4487;DHT22;2256;48.740;9.106;2023-03-14T08:18:29;14.70;99.90
4487;DHT22;2256;48.740;9.106;2023-03-14T08:20:56;14.90;99.90
4487;DHT22;2256;48.740;9.106;2023-03-14T08:23:23;15.20;99.90
4487;DHT22;2256;48.740;9.106;2023-03-14T08:25:50;15.50;99.90
4487;DHT22;2256;48.740;9.106;2023-03-14T08:28:18;15.40;99.70
4487;DHT22;2256;48.740;9.106;2023-03-14T08:30:45;15.40;99.70
4487;DHT22;2256;48.740;9.106;2023-03-14T08:33:12;15.70;99.90
4487;DHT22;2256;48.740;9.106;2023-03-14T08:35:39;16.00;99.30
4487;DHT22;2256;48.740;9.106;2023-03-14T08:38:05;16.40;98.20
4487;DHT22;2256;48.740;9.106;2023-03-14T08:40:32;16.30;97.90
4487;DHT22;2256;48.740;9.106;2023-03-14T08:42:59;16.90;98.00
4487;DHT22;2256;48.740;9.106;2023-03-14T08:45:27;17.60;97.40
4487;DHT22;2256;48.740;9.106;2023-03-14T08:47:54;18.40;95.80
4487;DHT22;2256;48.740;9.106;2023-03-14T08:50:21;18.50;95.30
4487;DHT22;2256;48.740;9.106;2023-03-14T08:52:48;19.00;95.20
4487;DHT22;2256;48.740;9.106;2023-03-14T08:55:16;18.20;95.10
4487;DHT22;2256;48.740;9.106;2023-03-14T08:57:43;17.20;96.00
4487;DHT22;2256;48.740;9.106;2023-03-14T09:00:10;16.30;96.50
4487;DHT22;2256;48.740;9.106;2023-03-14T09:02:39;15.40;97.60
4487;DHT22;2256;48.740;9.106;2023-03-14T09:05:07;15.20;98.20
4487;DHT22;2256;48.740;9.106;2023-03-14T09:07:36;15.00;99.10
4487;DHT22;2256;48.740;9.106;2023-03-14T09:10:03;14.60;99.80
4487;DHT22;2256;48.740;9.106;2023-03-14T09:12:30;14.20;99.90
4487;DHT22;2256;48.740;9.106;2023-03-14T09:14:57;14.00;99.90
4487;DHT22;2256;48.740;9.106;2023-03-14T09:17:23;14.00;99.90
4487;DHT22;2256;48.740;9.106;2023-03-14T09:19:52;14.00;99.90
4487;DHT22;2256;48.740;9.106;2023-03-14T09:22:18;13.90;99.90
4487;DHT22;2256;48.740;9.106;2023-03-14T09:24:45;14.00;99.90
4487;DHT22;2256;48.740;9.106;2023-03-14T09:27:12;14.80;99.90
4487;DHT22;2256;48.740;9.106;2023-03-14T09:29:39;14.80;99.90
4487;DHT22;2256;48.740;9.106;2023-03-14T09:32:06;14.60;99.90
4487;DHT22;2256;48.740;9.106;2023-03-14T09:34:34;14.20;99.90
4487;DHT22;2256;48.740;9.106;2023-03-14T09:37:02;13.70;99.90
4487;DHT22;2256;48.740;9.106;2023-03-14T09:39:29;13.50;99.90
4487;DHT22;2256;48.740;9.106;2023-03-14T09:41:56;13.20;99.90
4487;DHT22;2256;48.740;9.106;2023-03-14T09:44:29;13.10;99.90
4487;DHT22;2256;48.740;9.106;2023-03-14T09:47:00;12.70;99.90
4487;DHT22;2256;48.740;9.106;2023-03-14T09:49:30;12.50;99.90
4487;DHT22;2256;48.740;9.106;2023-03-14T09:51:59;12.30;99.90
4487;DHT22;2256;48.740;9.106;2023-03-14T09:54:34;12.20;99.90
4487;DHT22;2256;48.740;9.106;2023-03-14T09:57:04;12.10;99.90
4487;DHT22;2256;48.740;9.106;2023-03-14T09:59:33;12.10;99.90
4487;DHT22;2256;48.740;9.106;2023-03-14T10:02:13;12.10;99.90
4487;DHT22;2256;48.740;9.106;2023-03-14T10:04:42;12.00;99.90
4487;DHT22;2256;48.740;9.106;2023-03-14T10:07:13;12.10;99.90
4487;DHT22;2256;48.740;9.106;2023-03-14T10:09:43;12.60;99.90
4487;DHT22;2256;48.740;9.106;2023-03-14T10:12:10;13.10;99.90
4487;DHT22;2256;48.740;9.106;2023-03-14T10:14:45;13.60;99.90
4487;DHT22;2256;48.740;9.106;2023-03-14T10:17:14;13.90;99.90
4487;DHT22;2256;48.740;9.106;2023-03-14T10:19:51;14.00;99.90
4487;DHT22;2256;48.740;9.106;2023-03-14T10:22:19;14.00;99.90
4487;DHT22;2256;48.740;9.106;2023-03-14T10:24:52;13.90;99.90
4487;DHT22;2256;48.740;9.106;2023-03-14T10:27:20;14.20;99.90
4487;DHT22;2256;48.740;9.106;2023-03-14T10:29:52;14.40;99.90
4487;DHT22;2256;48.740;9.106;2023-03-14T10:32:21;14.50;99.90
4487;DHT22;2256;48.740;9.106;2023-03-14T10:37:53;14.10;99.90
4487;DHT22;2256;48.740;9.106;2023-03-14T10:40:26;14.30;99.90
4487;DHT22;2256;48.740;9.106;2023-03-14T10:42:54;14.30;99.90
4487;DHT22;2256;48.740;9.106;2023-03-14T10:45:31;13.90;99.90
4487;DHT22;2256;48.740;9.106;2023-03-14T10:47:59;13.70;99.90
4487;DHT22;2256;48.740;9.106;2023-03-14T10:50:28;13.60;99.90
4487;DHT22;2256;48.740;9.106;2023-03-14T10:52:56;13.70;99.90
4487;DHT22;2256;48.740;9.106;2023-03-14T10:55:25;13.60;99.90
4487;DHT22;2256;48.740;9.106;2023-03-14T10:57:52;13.30;99.90
4487;DHT22;2256;48.740;9.106;2023-03-14T11:00:21;13.10;99.90
4487;DHT22;2256;48.740;9.106;2023-03-14T11:02:56;12.90;99.90
4487;DHT22;2256;48.740;9.106;2023-03-14T11:05:30;12.80;99.90
4487;DHT22;2256;48.740;9.106;2023-03-14T11:08:01;12.60;99.90
4487;DHT22;2256;48.740;9.106;2023-03-14T11:10:33;12.50;99.90
4487;DHT22;2256;48.740;9.106;2023-03-14T11:13:14;12.50;99.90
4487;DHT22;2256;48.740;9.106;2023-03-14T11:15:48;12.50;99.90
4487;DHT22;2256;48.740;9.106;2023-03-14T11:18:44;12.40;99.90
4487;DHT22;2256;48.740;9.106;2023-03-14T11:21:17;12.00;99.90
4487;DHT22;2256;48.740;9.106;2023-03-14T11:23:53;11.80;99.90
4487;DHT22;2256;48.740;9.106;2023-03-14T11:26:29;11.60;99.90
4487;DHT22;2256;48.740;9.106;2023-03-14T11:29:07;11.50;99.90
4487;DHT22;2256;48.740;9.106;2023-03-14T11:31:39;11.50;99.90
4487;DHT22;2256;48.740;9.106;2023-03-14T11:34:13;11.30;99.90
4487;DHT22;2256;48.740;9.106;2023-03-14T11:36:48;11.30;99.90
4487;DHT22;2256;48.740;9.106;2023-03-14T11:39:18;11.40;99.90
4487;DHT22;2256;48.740;9.106;2023-03-14T11:41:50;11.60;99.90
4487;DHT22;2256;48.740;9.106;2023-03-14T11:44:19;11.60;99.90
4487;DHT22;2256;48.740;9.106;2023-03-14T11:46:49;11.40;99.90
4487;DHT22;2256;48.740;9.106;2023-03-14T11:49:26;11.30;99.90
4487;DHT22;2256;48.740;9.106;2023-03-14T11:51:58;11.20;99.90
4487;DHT22;2256;48.740;9.106;2023-03-14T11:54:33;11.30;99.90
4487;DHT22;2256;48.740;9.106;2023-03-14T11:57:04;11.20;99.90
4487;DHT22;2256;48.740;9.106;2023-03-14T11:59:41;11.30;99.90
4487;DHT22;2256;48.740;9.106;2023-03-14T12:02:18;11.40;99.90
4487;DHT22;2256;48.740;9.106;2023-03-14T12:04:55;11.40;99.90
4487;DHT22;2256;48.740;9.106;2023-03-14T12:07:30;11.60;99.90
4487;DHT22;2256;48.740;9.106;2023-03-14T12:10:02;11.60;99.90
4487;DHT22;2256;48.740;9.106;2023-03-14T12:12:31;11.50;99.90
4487;DHT22;2256;48.740;9.106;2023-03-14T12:15:00;11.40;99.90
4487;DHT22;2256;48.740;9.106;2023-03-14T12:17:35;11.20;99.90
4487;DHT22;2256;48.740;9.106;2023-03-14T12:20:05;11.20;99.90
4487;DHT22;2256;48.740;9.106;2023-03-14T12:22:42;11.40;99.90
4487;DHT22;2256;48.740;9.106;2023-03-14T12:25:15;11.70;99.90
4487;DHT22;2256;48.740;9.106;2023-03-14T12:28:03;11.70;99.90
4487;DHT22;2256;48.740;9.106;2023-03-14T12:30:33;11.60;99.90
4487;DHT22;2256;48.740;9.106;2023-03-14T12:33:29;11.50;99.90
4487;DHT22;2256;48.740;9.106;2023-03-14T12:36:02;11.10;99.90
4487;DHT22;2256;48.740;9.106;2023-03-14T12:41:29;11.30;99.90
4487;DHT22;2256;48.740;9.106;2023-03-14T12:50:24;11.40;99.90
4487;DHT22;2256;48.740;9.106;2023-03-14T12:53:02;11.40;99.90
4487;DHT22;2256;48.740;9.106;2023-03-14T12:55:35;11.40;99.90
4487;DHT22;2256;48.740;9.106;2023-03-14T12:58:08;11.30;99.90
4487;DHT22;2256;48.740;9.106;2023-03-14T13:00:39;11.20;99.90
4487;DHT22;2256;48.740;9.106;2023-03-14T13:03:18;11.10;99.90
4487;DHT22;2256;48.740;9.106;2023-03-14T13:05:55;10.90;99.50
4487;DHT22;2256;48.740;9.106;2023-03-14T13:08:37;10.60;99.60
4487;DHT22;2256;48.740;9.106;2023-03-14T13:11:07;10.20;99.50
4487;DHT22;2256;48.740;9.106;2023-03-14T13:13:36;9.90;99.90
4487;DHT22;2256;48.740;9.106;2023-03-14T13:16:05;9.70;99.40
4487;DHT22;2256;48.740;9.106;2023-03-14T13:18:36;9.50;98.60
4487;DHT22;2256;48.740;9.106;2023-03-14T13:21:07;9.50;98.70
4487;DHT22;2256;48.740;9.106;2023-03-14T13:23:37;9.50;98.30
4487;DHT22;2256;48.740;9.106;2023-03-14T13:26:10;9.60;97.80
4487;DHT22;2256;48.740;9.106;2023-03-14T13:28:37;9.60;97.80
4487;DHT22;2256;48.740;9.106;2023-03-14T13:31:05;9.50;98.10
4487;DHT22;2256;48.740;9.106;2023-03-14T13:33:34;9.40;98.10
4487;DHT22;2256;48.740;9.106;2023-03-14T13:36:04;9.30;97.50
4487;DHT22;2256;48.740;9.106;2023-03-14T13:38:33;9.30;97.50
4487;DHT22;2256;48.740;9.106;2023-03-14T13:41:05;9.40;98.10
4487;DHT22;2256;48.740;9.106;2023-03-14T13:43:33;9.50;98.00
4487;DHT22;2256;48.740;9.106;2023-03-14T13:46:05;9.60;97.60
4487;DHT22;2256;48.740;9.106;2023-03-14T13:48:35;9.40;97.30
4487;DHT22;2256;48.740;9.106;2023-03-14T13:51:11;9.40;97.50
4487;DHT22;2256;48.740;9.106;2023-03-14T13:53:43;9.50;97.40
4487;DHT22;2256;48.740;9.106;2023-03-14T13:56:11;9.50;96.80
4487;DHT22;2256;48.740;9.106;2023-03-14T13:58:39;9.40;95.50
4487;DHT22;2256;48.740;9.106;2023-03-14T14:01:11;9.40;95.10
4487;DHT22;2256;48.740;9.106;2023-03-14T14:03:42;9.20;94.50
4487;DHT22;2256;48.740;9.106;2023-03-14T14:06:16;9.10;94.60
4487;DHT22;2256;48.740;9.106;2023-03-14T14:08:47;9.20;94.50
4487;DHT22;2256;48.740;9.106;2023-03-14T14:11:22;9.10;93.10
4487;DHT22;2256;48.740;9.106;2023-03-14T14:13:50;9.00;93.40
4487;DHT22;2256;48.740;9.106;2023-03-14T14:16:22;8.90;93.00
4487;DHT22;2256;48.740;9.106;2023-03-14T14:18:52;8.80;93.00
4487;DHT22;2256;48.740;9.106;2023-03-14T14:21:21;8.70;93.30
4487;DHT22;2256;48.740;9.106;2023-03-14T14:23:48;8.60;93.70
4487;DHT22;2256;48.740;9.106;2023-03-14T14:26:17;8.50;93.70
4487;DHT22;2256;48.740;9.106;2023-03-14T14:28:45;8.50;93.90
4487;DHT22;2256;48.740;9.106;2023-03-14T14:31:20;8.50;94.00
4487;DHT22;2256;48.740;9.106;2023-03-14T14:33:55;8.50;94.20
4487;DHT22;2256;48.740;9.106;2023-03-14T14:36:26;8.50;94.50
4487;DHT22;2256;48.740;9.106;2023-03-14T14:38:57;8.60;94.60
4487;DHT22;2256;48.740;9.106;2023-03-14T14:41:27;8.70;95.20
4487;DHT22;2256;48.740;9.106;2023-03-14T14:43:56;8.90;94.80
4487;DHT22;2256;48.740;9.106;2023-03-14T14:46:26;8.90;94.80
4487;DHT22;2256;48.740;9.106;2023-03-14T14:48:57;8.70;94.50
4487;DHT22;2256;48.740;9.106;2023-03-14T14:51:32;8.60;94.70
4487;DHT22;2256;48.740;9.106;2023-03-14T14:54:10;8.60;95.00
4487;DHT22;2256;48.740;9.106;2023-03-14T14:56:38;8.50;94.30
4487;DHT22;2256;48.740;9.106;2023-03-14T14:59:07;8.50;94.90
4487;DHT22;2256;48.740;9.106;2023-03-14T15:01:43;8.40;94.70
4487;DHT22;2256;48.740;9.106;2023-03-14T15:04:15;8.40;94.80
4487;DHT22;2256;48.740;9.106;2023-03-14T15:06:43;8.50;95.00
4487;DHT22;2256;48.740;9.106;2023-03-14T15:09:11;8.70;94.90
4487;DHT22;2256;48.740;9.106;2023-03-14T15:11:38;8.90;94.70
4487;DHT22;2256;48.740;9.106;2023-03-14T15:14:05;9.10;94.60
4487;DHT22;2256;48.740;9.106;2023-03-14T15:16:32;9.30;94.50
4487;DHT22;2256;48.740;9.106;2023-03-14T15:19:01;9.50;93.90
4487;DHT22;2256;48.740;9.106;2023-03-14T15:21:32;9.70;94.10
4487;DHT22;2256;48.740;9.106;2023-03-14T15:23:59;9.70;93.30
4487;DHT22;2256;48.740;9.106;2023-03-14T15:26:27;9.70;93.70
4487;DHT22;2256;48.740;9.106;2023-03-14T15:28:54;9.40;93.80
4487;DHT22;2256;48.740;9.106;2023-03-14T15:31:21;9.00;93.90
4487;DHT22;2256;48.740;9.106;2023-03-14T15:33:48;8.80;94.20
4487;DHT22;2256;48.740;9.106;2023-03-14T15:36:21;8.70;94.60
4487;DHT22;2256;48.740;9.106;2023-03-14T15:38:51;8.70;95.10
4487;DHT22;2256;48.740;9.106;2023-03-14T15:41:19;8.70;95.30
4487;DHT22;2256;48.740;9.106;2023-03-14T15:43:47;8.70;95.10
4487;DHT22;2256;48.740;9.106;2023-03-14T15:46:15;8.60;95.60
4487;DHT22;2256;48.740;9.106;2023-03-14T15:48:42;8.60;95.60
4487;DHT22;2256;48.740;9.106;2023-03-14T15:51:09;8.60;95.30
4487;DHT22;2256;48.740;9.106;2023-03-14T15:53:37;8.50;95.70
4487;DHT22;2256;48.740;9.106;2023-03-14T15:56:07;8.40;95.60
4487;DHT22;2256;48.740;9.106;2023-03-14T15:58:34;8.30;95.50
4487;DHT22;2256;48.740;9.106;2023-03-14T16:01:01;8.20;95.60
4487;DHT22;2256;48.740;9.106;2023-03-14T16:03:28;8.10;96.00
4487;DHT22;2256;48.740;9.106;2023-03-14T16:05:55;7.90;96.20
4487;DHT22;2256;48.740;9.106;2023-03-14T16:08:22;7.90;96.50
4487;DHT22;2256;48.740;9.106;2023-03-14T16:10:50;7.80;96.60
4487;DHT22;2256;48.740;9.106;2023-03-14T16:13:18;7.70;96.50
4487;DHT22;2256;48.740;9.106;2023-03-14T16:15:56;7.60;97.10
4487;DHT22;2256;48.740;9.106;2023-03-14T16:18:22;7.70;96.90
4487;DHT22;2256;48.740;9.106;2023-03-14T16:20:57;7.70;96.90
4487;DHT22;2256;48.740;9.106;2023-03-14T16:23:24;7.80;96.80
4487;DHT22;2256;48.740;9.106;2023-03-14T16:25:52;7.70;96.60
4487;DHT22;2256;48.740;9.106;2023-03-14T16:28:20;7.70;97.10
4487;DHT22;2256;48.740;9.106;2023-03-14T16:30:47;7.60;97.20
4487;DHT22;2256;48.740;9.106;2023-03-14T16:33:14;7.50;97.20
4487;DHT22;2256;48.740;9.106;2023-03-14T16:35:41;7.50;97.20